createdAt,value
2022-11-30T00:01:44.298Z,5.19
2022-11-30T00:04:10.776Z,5.19
2022-11-30T00:06:37.208Z,5.18
2022-11-30T00:09:03.673Z,5.21
2022-11-30T00:11:30.235Z,5.23
2022-11-30T00:13:56.592Z,5.22
2022-11-30T00:16:23.170Z,5.23
2022-11-30T00:18:50.120Z,5.20
2022-11-30T00:21:16.943Z,5.20
2022-11-30T00:23:45.409Z,5.17
2022-11-30T00:26:14.875Z,5.18
2022-11-30T00:28:42.031Z,5.17
2022-11-30T00:31:11.519Z,5.20
2022-11-30T00:33:39.293Z,5.20
2022-11-30T00:36:12.469Z,5.20
2022-11-30T00:38:39.412Z,5.16
2022-11-30T00:41:07.522Z,5.16
2022-11-30T00:43:33.962Z,5.16
2022-11-30T00:46:00.673Z,5.15
2022-11-30T00:48:27.331Z,5.14
2022-11-30T00:50:54.010Z,5.15
2022-11-30T00:53:20.889Z,5.15
2022-11-30T00:55:48.439Z,5.16
2022-11-30T00:58:15.176Z,5.18
2022-11-30T01:00:42.127Z,5.17
2022-11-30T01:03:08.865Z,5.15
2022-11-30T01:05:35.987Z,5.16
2022-11-30T01:08:04.550Z,5.15
2022-11-30T01:10:31.204Z,5.16
2022-11-30T01:12:57.721Z,5.17
2022-11-30T01:15:24.129Z,5.17
2022-11-30T01:17:50.666Z,5.14
2022-11-30T01:20:17.486Z,5.12
2022-11-30T01:22:44.021Z,5.12
2022-11-30T01:25:10.412Z,5.10
2022-11-30T01:27:36.858Z,5.08
2022-11-30T01:30:04.088Z,5.07
2022-11-30T01:32:30.721Z,5.09
2022-11-30T01:34:57.147Z,5.07
2022-11-30T01:37:23.797Z,5.08
2022-11-30T01:39:50.367Z,5.08
2022-11-30T01:42:19.937Z,5.09
2022-11-30T01:44:56.940Z,5.11
2022-11-30T01:47:30.407Z,5.11
2022-11-30T01:50:08.988Z,5.07
2022-11-30T01:52:39.974Z,5.08
2022-11-30T01:55:15.282Z,5.03
2022-11-30T01:58:02.022Z,5.02
2022-11-30T02:00:28.612Z,5.03
2022-11-30T02:03:07.309Z,5.05
2022-11-30T02:05:37.059Z,5.06
2022-11-30T02:08:04.859Z,5.06
2022-11-30T02:10:34.588Z,5.04
2022-11-30T02:13:24.044Z,5.01
2022-11-30T02:16:27.267Z,4.97
2022-11-30T02:19:05.003Z,5.01
2022-11-30T02:21:49.519Z,5.04
2022-11-30T02:24:34.159Z,5.05
2022-11-30T02:27:34.592Z,5.01
2022-11-30T02:30:19.788Z,5.00
2022-11-30T02:32:56.178Z,4.96
2022-11-30T02:35:27.755Z,4.97
2022-11-30T02:37:55.970Z,4.97
2022-11-30T02:40:22.358Z,4.98
2022-11-30T02:42:52.367Z,4.97
2022-11-30T02:45:44.331Z,4.96
2022-11-30T02:48:14.059Z,5.00
2022-11-30T02:50:55.570Z,5.02
2022-11-30T02:53:22.724Z,5.01
2022-11-30T02:55:49.078Z,5.02
2022-11-30T02:58:17.300Z,5.00
2022-11-30T03:00:43.679Z,5.02
2022-11-30T03:03:10.124Z,5.02
2022-11-30T03:05:36.688Z,5.04
2022-11-30T03:08:03.058Z,4.99
2022-11-30T03:10:29.516Z,4.96
2022-11-30T03:12:59.967Z,4.92
2022-11-30T03:15:26.907Z,4.92
2022-11-30T03:17:53.302Z,4.91
2022-11-30T03:20:19.732Z,4.92
2022-11-30T03:22:46.251Z,4.92
2022-11-30T03:25:12.694Z,4.94
2022-11-30T03:27:39.190Z,4.99
2022-11-30T03:30:06.509Z,5.00
2022-11-30T03:32:33.114Z,5.03
2022-11-30T03:34:59.763Z,5.03
2022-11-30T03:37:26.129Z,5.04
2022-11-30T03:39:57.936Z,5.06
2022-11-30T03:42:24.836Z,5.08
2022-11-30T03:44:51.362Z,5.09
2022-11-30T03:47:17.896Z,5.04
2022-11-30T03:49:44.351Z,5.08
2022-11-30T03:52:10.758Z,5.07
2022-11-30T03:54:37.171Z,5.05
2022-11-30T03:57:03.597Z,5.02
2022-11-30T03:59:30.174Z,5.00
2022-11-30T04:01:56.609Z,5.00
2022-11-30T04:04:22.970Z,4.97
2022-11-30T04:06:49.414Z,4.94
2022-11-30T04:09:15.807Z,4.93
2022-11-30T04:11:42.143Z,4.94
2022-11-30T04:14:08.819Z,4.94
2022-11-30T04:16:35.530Z,4.98
2022-11-30T04:19:02.011Z,4.97
2022-11-30T04:21:28.374Z,5.01
2022-11-30T04:23:54.796Z,5.00
2022-11-30T04:26:21.656Z,5.02
2022-11-30T04:28:48.181Z,5.00
2022-11-30T04:31:14.585Z,4.99
2022-11-30T04:33:41.185Z,4.99
2022-11-30T04:36:15.615Z,5.02
2022-11-30T04:38:41.982Z,5.03
2022-11-30T04:41:09.198Z,5.04
2022-11-30T04:43:35.952Z,5.04
2022-11-30T04:46:02.742Z,5.04
2022-11-30T04:48:29.233Z,5.05
2022-11-30T04:51:04.259Z,5.07
2022-11-30T04:53:30.603Z,5.07
2022-11-30T04:55:57.191Z,5.08
2022-11-30T04:58:23.758Z,5.02
2022-11-30T05:00:53.235Z,5.03
2022-11-30T05:03:19.662Z,5.00
2022-11-30T05:05:45.999Z,5.02
2022-11-30T05:08:12.479Z,5.03
2022-11-30T05:10:39.072Z,4.97
2022-11-30T05:13:05.678Z,5.00
2022-11-30T05:15:32.508Z,4.94
2022-11-30T05:18:00.329Z,4.89
2022-11-30T05:20:28.474Z,4.90
2022-11-30T05:22:54.979Z,4.92
2022-11-30T05:25:21.599Z,4.85
2022-11-30T05:27:47.917Z,4.89
2022-11-30T05:30:14.559Z,5.17
2022-11-30T05:32:41.206Z,5.06
2022-11-30T05:35:07.991Z,4.95
2022-11-30T05:37:34.433Z,4.86
2022-11-30T05:40:00.893Z,4.94
2022-11-30T05:42:27.347Z,4.79
2022-11-30T05:44:53.776Z,4.80
2022-11-30T05:47:20.175Z,4.71
2022-11-30T05:49:46.816Z,4.65
2022-11-30T05:52:13.235Z,4.66
2022-11-30T05:54:39.647Z,4.65
2022-11-30T05:57:06.060Z,4.58
2022-11-30T05:59:32.618Z,4.59
2022-11-30T06:01:59.173Z,4.63
2022-11-30T06:04:25.944Z,4.59
2022-11-30T06:06:52.314Z,4.49
2022-11-30T06:09:18.812Z,4.49
2022-11-30T06:11:45.124Z,4.47
2022-11-30T06:14:11.668Z,4.44
2022-11-30T06:16:41.180Z,4.43
2022-11-30T06:19:07.722Z,4.39
2022-11-30T06:21:35.579Z,4.37
2022-11-30T06:24:02.113Z,4.38
2022-11-30T06:26:28.539Z,4.40
2022-11-30T06:28:54.918Z,4.40
2022-11-30T06:31:21.750Z,4.35
2022-11-30T06:33:48.924Z,4.37
2022-11-30T06:36:21.471Z,4.37
2022-11-30T06:38:47.891Z,4.32
2022-11-30T06:41:14.307Z,4.37
2022-11-30T06:43:40.907Z,4.30
2022-11-30T06:46:07.856Z,4.28
2022-11-30T06:48:35.251Z,4.22
2022-11-30T06:51:04.884Z,4.15
2022-11-30T06:53:31.832Z,4.28
2022-11-30T06:55:58.207Z,4.44
2022-11-30T06:58:24.577Z,4.27
2022-11-30T07:00:50.974Z,4.36
2022-11-30T07:03:17.477Z,4.26
2022-11-30T07:05:46.155Z,4.42
2022-11-30T07:08:15.472Z,4.28
2022-11-30T07:10:46.271Z,4.22
2022-11-30T07:13:14.512Z,4.19
2022-11-30T07:15:42.287Z,4.21
2022-11-30T07:18:09.503Z,4.20
2022-11-30T07:20:37.532Z,4.20
2022-11-30T07:23:04.414Z,4.42
2022-11-30T07:25:30.853Z,4.30
2022-11-30T07:27:57.557Z,4.35
2022-11-30T07:30:24.029Z,4.45
2022-11-30T07:32:50.442Z,4.47
2022-11-30T07:35:16.930Z,4.46
2022-11-30T07:37:43.341Z,4.48
2022-11-30T07:40:10.189Z,4.46
2022-11-30T07:42:36.685Z,4.45
2022-11-30T07:45:03.321Z,4.48
2022-11-30T07:47:29.964Z,4.46
2022-11-30T07:49:56.425Z,4.47
2022-11-30T07:52:24.561Z,4.44
2022-11-30T07:54:51.071Z,4.48
2022-11-30T07:57:17.619Z,4.54
2022-11-30T07:59:44.060Z,4.54
2022-11-30T08:02:11.716Z,4.60
2022-11-30T08:04:38.517Z,4.62
2022-11-30T08:07:05.232Z,4.71
2022-11-30T08:09:31.935Z,4.79
2022-11-30T08:11:58.589Z,4.81
2022-11-30T08:14:25.016Z,4.81
2022-11-30T08:16:51.572Z,4.81
2022-11-30T08:19:18.214Z,4.77
2022-11-30T08:21:44.588Z,4.76
2022-11-30T08:24:12.333Z,4.81
2022-11-30T08:26:38.916Z,4.85
2022-11-30T08:29:05.334Z,4.81
2022-11-30T08:31:34.716Z,4.89
2022-11-30T08:34:07.238Z,4.84
2022-11-30T08:36:34.637Z,4.85
2022-11-30T08:39:02.731Z,4.85
2022-11-30T08:41:29.201Z,4.88
2022-11-30T08:43:55.661Z,5.05
2022-11-30T08:49:26.055Z,5.00
2022-11-30T08:54:43.833Z,5.29
2022-11-30T08:57:10.702Z,5.10
2022-11-30T08:59:37.402Z,5.42
2022-11-30T09:02:04.142Z,5.33
2022-11-30T09:04:30.573Z,5.47
2022-11-30T09:06:57.030Z,5.36
2022-11-30T09:09:23.374Z,5.38
2022-11-30T09:11:50.016Z,5.36
2022-11-30T09:14:16.707Z,5.29
2022-11-30T09:16:43.329Z,5.77
2022-11-30T09:19:09.966Z,5.60
2022-11-30T09:21:36.519Z,5.88
2022-11-30T09:24:03.223Z,5.78
2022-11-30T09:26:29.681Z,5.91
2022-11-30T09:28:56.136Z,5.82
2022-11-30T09:31:24.476Z,5.77
2022-11-30T09:33:51.961Z,5.85
2022-11-30T09:36:21.389Z,5.93
2022-11-30T09:38:48.718Z,5.96
2022-11-30T09:41:42.545Z,5.87
2022-11-30T09:44:30.327Z,5.80
2022-11-30T09:47:10.456Z,5.69
2022-11-30T09:49:44.507Z,5.96
2022-11-30T09:52:17.341Z,5.93
2022-11-30T09:54:45.746Z,6.03
2022-11-30T09:57:31.336Z,6.11
2022-11-30T09:59:59.871Z,6.06
2022-11-30T10:02:30.263Z,5.94
2022-11-30T10:04:57.862Z,5.98
2022-11-30T10:07:33.157Z,5.80
2022-11-30T10:10:33.702Z,5.90
2022-11-30T10:13:24.518Z,6.19
2022-11-30T10:16:11.245Z,6.16
2022-11-30T10:19:03.573Z,6.08
2022-11-30T10:21:49.920Z,5.90
2022-11-30T10:24:37.848Z,5.96
2022-11-30T10:27:18.510Z,5.82
2022-11-30T10:29:44.960Z,5.89
2022-11-30T10:32:20.709Z,5.89
2022-11-30T10:34:53.030Z,6.05
2022-11-30T10:37:29.807Z,6.09
2022-11-30T10:40:02.922Z,6.14
2022-11-30T10:42:55.629Z,6.20
2022-11-30T10:45:24.159Z,6.38
2022-11-30T10:48:00.524Z,6.28
2022-11-30T10:50:29.242Z,6.30
2022-11-30T10:52:58.527Z,6.28
2022-11-30T10:55:28.459Z,6.45
2022-11-30T10:58:02.513Z,6.26
2022-11-30T11:00:29.010Z,6.05
2022-11-30T11:02:55.709Z,6.14
2022-11-30T11:05:27.855Z,6.14
2022-11-30T11:08:07.211Z,6.11
2022-11-30T11:10:37.214Z,6.19
2022-11-30T11:13:04.104Z,6.25
2022-11-30T11:15:34.793Z,6.44
2022-11-30T11:18:16.704Z,6.38
2022-11-30T11:20:43.809Z,6.28
2022-11-30T11:23:37.300Z,6.28
2022-11-30T11:26:06.279Z,6.42
2022-11-30T11:28:35.875Z,6.64
2022-11-30T11:31:17.042Z,6.51
2022-11-30T11:33:54.249Z,6.62
2022-11-30T11:36:29.679Z,6.49
2022-11-30T11:38:57.253Z,6.42
2022-11-30T11:41:35.487Z,6.33
2022-11-30T11:44:08.068Z,6.39
2022-11-30T11:46:37.299Z,6.52
2022-11-30T11:49:06.955Z,6.58
2022-11-30T11:51:36.692Z,6.71
2022-11-30T11:54:22.581Z,6.58
2022-11-30T11:56:49.648Z,6.54
2022-11-30T11:59:32.284Z,6.44
2022-11-30T12:02:09.746Z,6.18
2022-11-30T12:04:56.715Z,6.18
2022-11-30T12:07:49.073Z,6.38
2022-11-30T12:10:52.229Z,6.39
2022-11-30T12:13:32.828Z,6.20
2022-11-30T12:16:36.862Z,6.31
2022-11-30T12:19:20.562Z,6.33
2022-11-30T12:22:05.224Z,6.47
2022-11-30T12:24:47.896Z,6.54
2022-11-30T12:27:17.408Z,6.56
2022-11-30T12:30:12.180Z,6.63
2022-11-30T12:33:16.483Z,6.45
2022-11-30T12:35:51.820Z,6.48
2022-11-30T12:38:32.027Z,6.47
2022-11-30T12:41:18.937Z,6.38
2022-11-30T12:44:00.704Z,6.38
2022-11-30T12:46:45.983Z,6.21
2022-11-30T12:49:20.809Z,6.20
2022-11-30T12:51:53.468Z,6.04
2022-11-30T12:54:41.327Z,6.07
2022-11-30T12:57:39.686Z,6.13
2022-11-30T13:00:19.931Z,6.14
2022-11-30T13:03:02.001Z,6.10
2022-11-30T13:05:54.710Z,6.11
2022-11-30T13:08:31.870Z,5.91
2022-11-30T13:11:08.354Z,5.90
2022-11-30T13:13:36.511Z,5.95
2022-11-30T13:16:07.996Z,6.01
2022-11-30T13:18:34.931Z,5.97
2022-11-30T13:21:16.972Z,5.89
2022-11-30T13:24:05.780Z,5.66
2022-11-30T13:26:54.480Z,5.79
2022-11-30T13:29:39.358Z,5.76
2022-11-30T13:32:27.942Z,5.73
2022-11-30T13:35:29.181Z,5.75
2022-11-30T13:41:04.876Z,5.79
2022-11-30T13:43:36.793Z,5.77
2022-11-30T13:46:14.474Z,5.89
2022-11-30T13:48:43.332Z,5.74
2022-11-30T13:51:10.159Z,5.67
2022-11-30T13:53:38.521Z,5.71
2022-11-30T13:56:18.412Z,5.89
2022-11-30T13:59:32.657Z,5.82
2022-11-30T14:02:33.268Z,5.76
2022-11-30T14:05:32.226Z,5.71
2022-11-30T14:08:01.621Z,5.70
2022-11-30T14:10:43.590Z,5.69
2022-11-30T14:13:09.896Z,5.73
2022-11-30T14:15:39.208Z,5.69
2022-11-30T14:18:08.696Z,5.70
2022-11-30T14:20:53.588Z,5.71
2022-11-30T14:23:47.346Z,5.67
2022-11-30T14:26:16.284Z,5.67
2022-11-30T14:28:50.196Z,5.63
2022-11-30T14:31:21.315Z,5.65
2022-11-30T14:34:08.841Z,5.66
2022-11-30T14:36:41.461Z,5.65
2022-11-30T14:39:33.134Z,5.61
2022-11-30T14:42:00.943Z,5.61
2022-11-30T14:44:28.238Z,5.62
2022-11-30T14:46:54.948Z,5.65
2022-11-30T14:49:23.619Z,5.64
2022-11-30T14:52:05.295Z,5.60
2022-11-30T14:54:42.312Z,5.56
2022-11-30T14:57:20.718Z,5.51
2022-11-30T14:59:52.528Z,5.53
2022-11-30T15:02:31.321Z,5.54
2022-11-30T15:04:59.060Z,5.55
2022-11-30T15:07:27.618Z,5.53
2022-11-30T15:10:11.859Z,5.52
2022-11-30T15:12:40.579Z,5.51
2022-11-30T15:15:13.109Z,5.45
2022-11-30T15:17:47.914Z,5.46
2022-11-30T15:20:49.919Z,5.49
2022-11-30T15:23:16.677Z,5.45
2022-11-30T15:25:47.664Z,5.47
2022-11-30T15:28:27.963Z,5.45
2022-11-30T15:30:58.619Z,5.44
2022-11-30T15:33:33.824Z,5.52
2022-11-30T15:36:32.031Z,5.46
2022-11-30T15:38:50.554Z,5.49
2022-11-30T15:41:22.324Z,5.44
2022-11-30T15:43:54.556Z,5.39
2022-11-30T15:47:13.427Z,5.45
2022-11-30T15:49:39.814Z,5.44
2022-11-30T15:52:17.869Z,5.45
2022-11-30T15:54:47.036Z,5.47
2022-11-30T15:57:14.498Z,5.44
2022-11-30T15:59:40.841Z,5.43
2022-11-30T16:02:25.180Z,5.45
2022-11-30T16:04:57.454Z,5.54
2022-11-30T16:07:27.409Z,5.44
2022-11-30T16:10:06.995Z,5.39
2022-11-30T16:12:33.679Z,5.36
2022-11-30T16:15:00.227Z,5.35
2022-11-30T16:17:26.552Z,5.36
2022-11-30T16:19:52.904Z,5.31
2022-11-30T16:22:19.372Z,5.30
2022-11-30T16:24:45.674Z,5.31
2022-11-30T16:27:16.614Z,5.26
2022-11-30T16:29:45.785Z,5.29
2022-11-30T16:32:14.912Z,5.28
2022-11-30T16:34:41.540Z,5.23
2022-11-30T16:37:11.623Z,5.29
2022-11-30T16:39:38.133Z,5.23
2022-11-30T16:42:04.452Z,5.29
2022-11-30T16:44:30.720Z,5.29
2022-11-30T16:46:57.171Z,5.26
2022-11-30T16:49:23.478Z,5.24
2022-11-30T16:51:49.808Z,5.38
2022-11-30T16:54:16.226Z,5.45
2022-11-30T16:56:42.976Z,5.35
2022-11-30T16:59:16.266Z,5.31
2022-11-30T17:01:46.865Z,5.31
2022-11-30T17:04:19.694Z,5.29
2022-11-30T17:06:50.158Z,5.27
2022-11-30T17:09:18.535Z,5.26
2022-11-30T17:11:46.590Z,5.20
2022-11-30T17:14:14.548Z,5.19
2022-11-30T17:16:41.283Z,5.17
2022-11-30T17:19:08.197Z,5.17
2022-11-30T17:21:36.901Z,5.16
2022-11-30T17:24:04.715Z,5.13
2022-11-30T17:26:31.257Z,5.18
2022-11-30T17:28:58.073Z,5.15
2022-11-30T17:31:24.728Z,5.13
2022-11-30T17:33:53.703Z,5.15
2022-11-30T17:36:20.890Z,5.15
2022-11-30T17:38:47.365Z,5.13
2022-11-30T17:41:19.108Z,5.21
2022-11-30T17:43:47.347Z,5.06
2022-11-30T17:46:15.614Z,5.04
2022-11-30T17:48:42.956Z,5.10
2022-11-30T17:51:10.197Z,5.03
2022-11-30T17:53:41.518Z,4.98
2022-11-30T17:56:10.564Z,4.90
2022-11-30T17:58:41.561Z,4.92
2022-11-30T18:01:28.189Z,5.03
2022-11-30T18:03:55.925Z,4.99
2022-11-30T18:06:22.743Z,4.92
2022-11-30T18:08:49.498Z,4.86
2022-11-30T18:11:22.260Z,4.88
2022-11-30T18:13:50.841Z,4.99
2022-11-30T18:16:20.653Z,4.88
2022-11-30T18:18:48.668Z,4.97
2022-11-30T18:21:17.895Z,4.86
2022-11-30T18:23:46.399Z,4.84
2022-11-30T18:26:16.985Z,4.76
2022-11-30T18:28:44.153Z,4.70
2022-11-30T18:31:10.648Z,4.82
2022-11-30T18:33:37.905Z,4.75
2022-11-30T18:36:05.611Z,4.72
2022-11-30T18:38:37.954Z,4.66
2022-11-30T18:41:06.346Z,5.04
2022-11-30T18:43:33.593Z,4.81
2022-11-30T18:46:08.301Z,4.75
2022-11-30T18:48:35.424Z,4.61
2022-11-30T18:51:12.800Z,4.85
2022-11-30T18:53:39.279Z,4.73
2022-11-30T18:56:15.090Z,4.71
2022-11-30T18:58:42.501Z,4.53
2022-11-30T19:01:12.503Z,4.45
2022-11-30T19:03:39.751Z,4.36
2022-11-30T19:06:08.211Z,4.40
2022-11-30T19:08:35.250Z,4.27
2022-11-30T19:11:05.503Z,4.27
2022-11-30T19:13:32.300Z,4.33
2022-11-30T19:16:03.899Z,4.37
2022-11-30T19:18:30.318Z,4.38
2022-11-30T19:20:57.186Z,4.38
2022-11-30T19:23:24.032Z,4.29
2022-11-30T19:25:50.612Z,4.10
2022-11-30T19:28:17.948Z,4.11
2022-11-30T19:30:44.377Z,3.96
2022-11-30T19:33:10.813Z,3.85
2022-11-30T19:35:37.365Z,3.93
2022-11-30T19:38:03.679Z,3.84
2022-11-30T19:40:30.443Z,3.73
2022-11-30T19:42:56.868Z,3.70
2022-11-30T19:45:23.833Z,3.62
2022-11-30T19:47:50.381Z,3.53
2022-11-30T19:50:16.729Z,3.53
2022-11-30T19:52:43.130Z,3.46
2022-11-30T19:55:09.928Z,3.43
2022-11-30T19:57:36.874Z,3.35
2022-11-30T20:00:05.722Z,3.31
2022-11-30T20:02:33.547Z,3.28
2022-11-30T20:05:00.168Z,3.27
2022-11-30T20:07:27.241Z,3.21
2022-11-30T20:09:53.855Z,3.27
2022-11-30T20:12:20.625Z,3.39
2022-11-30T20:14:47.338Z,3.21
2022-11-30T20:17:14.002Z,3.12
2022-11-30T20:19:40.410Z,3.11
2022-11-30T20:22:06.841Z,3.18
2022-11-30T20:24:33.335Z,3.14
2022-11-30T20:26:59.718Z,3.11
2022-11-30T20:29:26.043Z,3.16
2022-11-30T20:31:52.402Z,3.08
2022-11-30T20:34:18.996Z,3.02
2022-11-30T20:36:45.500Z,3.00
2022-11-30T20:39:12.106Z,3.00
2022-11-30T20:41:38.668Z,3.00
2022-11-30T20:44:05.616Z,2.97
2022-11-30T20:46:34.472Z,2.99
2022-11-30T20:49:02.041Z,3.01
2022-11-30T20:51:33.662Z,3.02
2022-11-30T20:54:02.376Z,3.02
2022-11-30T20:56:29.071Z,3.00
2022-11-30T20:58:55.511Z,3.03
2022-11-30T21:01:22.882Z,2.99
2022-11-30T21:03:49.763Z,3.00
2022-11-30T21:06:16.435Z,2.95
2022-11-30T21:08:43.476Z,2.96
2022-11-30T21:11:13.363Z,3.02
2022-11-30T21:13:41.682Z,2.97
2022-11-30T21:16:08.601Z,2.99
2022-11-30T21:18:39.455Z,3.00
2022-11-30T21:21:30.834Z,3.12
2022-11-30T21:23:59.631Z,3.03
2022-11-30T21:26:32.169Z,3.01
2022-11-30T21:29:02.159Z,3.00
2022-11-30T21:31:29.800Z,3.00
2022-11-30T21:33:56.600Z,3.08
2022-11-30T21:36:23.282Z,3.03
2022-11-30T21:39:06.117Z,3.07
2022-11-30T21:41:34.671Z,2.99
2022-11-30T21:44:01.173Z,2.99
2022-11-30T21:46:27.961Z,3.00
2022-11-30T21:48:54.369Z,2.97
2022-11-30T21:51:24.378Z,2.98
2022-11-30T21:53:56.228Z,2.96
2022-11-30T21:56:28.634Z,2.94
2022-11-30T21:58:56.185Z,2.92
2022-11-30T22:01:27.009Z,2.89
2022-11-30T22:03:53.417Z,2.93
2022-11-30T22:06:20.514Z,2.93
2022-11-30T22:08:46.929Z,2.90
2022-11-30T22:11:16.930Z,2.87
2022-11-30T22:13:44.502Z,2.87
2022-11-30T22:16:15.943Z,3.03
2022-11-30T22:18:43.931Z,3.09
2022-11-30T22:21:13.875Z,3.02
2022-11-30T22:23:43.715Z,3.06
2022-11-30T22:26:18.512Z,3.01
2022-11-30T22:28:50.215Z,2.92
2022-11-30T22:31:20.000Z,3.01
2022-11-30T22:33:46.810Z,3.05
2022-11-30T22:36:15.428Z,3.01
2022-11-30T22:38:42.519Z,2.96
2022-11-30T22:41:14.532Z,2.90
2022-11-30T22:43:42.292Z,2.88
2022-11-30T22:46:12.327Z,2.90
2022-11-30T22:48:39.437Z,2.91
2022-11-30T22:51:15.792Z,2.97
2022-11-30T22:53:42.722Z,2.91
2022-11-30T22:56:14.542Z,2.90
2022-11-30T22:58:41.941Z,2.85
2022-11-30T23:01:10.850Z,2.82
2022-11-30T23:03:38.049Z,2.83
2022-11-30T23:06:05.044Z,2.85
2022-11-30T23:08:32.221Z,2.87
2022-11-30T23:11:04.602Z,2.86
2022-11-30T23:13:31.286Z,2.87
2022-11-30T23:15:58.238Z,2.86
2022-11-30T23:18:24.996Z,2.85
2022-11-30T23:20:51.425Z,2.83
2022-11-30T23:23:17.793Z,2.86
2022-11-30T23:25:44.158Z,2.85
2022-11-30T23:28:10.833Z,2.85
2022-11-30T23:30:37.221Z,2.85
2022-11-30T23:33:03.890Z,2.84
2022-11-30T23:35:30.192Z,2.87
2022-11-30T23:37:56.820Z,3.01
2022-11-30T23:40:23.401Z,3.15
2022-11-30T23:42:49.764Z,3.02
2022-11-30T23:45:16.438Z,2.96
2022-11-30T23:47:42.899Z,2.95
2022-11-30T23:50:09.790Z,2.88
2022-11-30T23:52:36.236Z,2.85
2022-11-30T23:55:02.538Z,2.88
2022-11-30T23:57:28.864Z,3.06
2022-11-30T23:59:55.265Z,2.92
